Time;durP1;ratioP1;P1;durP2;ratioP2;P2;SDS_P1;SDS_P2;PMS_P1;PMS_P2;Temp;Humidity;BMP_temperature;BMP_pressure;BME280_temperature;BME280_humidity;BME280_pressure;Samples;Min_cycle;Max_cycle;Signal;HPM_P1;HPM_P2
2023/09/24 00:00:15;;;;;;;7.07;2.80;;;12.10;99.90;;;11.28;100.00;101763.09;4201547;28;20377;-75
2023/09/24 00:02:15;;;;;;;5.60;2.30;;;12.00;99.90;;;11.26;100.00;101766.84;4184857;28;20451;-75
2023/09/24 00:04:17;;;;;;;10.40;2.45;;;12.00;99.90;;;11.23;100.00;101767.09;4197578;28;20036;-75
2023/09/24 00:06:18;;;;;;;8.02;2.75;;;12.00;99.90;;;11.19;100.00;101757.78;4187795;28;20040;-75
2023/09/24 00:08:20;;;;;;;6.18;2.20;;;11.90;99.90;;;11.16;100.00;101760.69;4187944;28;20021;-75
2023/09/24 00:10:21;;;;;;;6.47;2.72;;;11.90;99.90;;;11.10;100.00;101762.91;4200871;28;20031;-75
2023/09/24 00:12:21;;;;;;;7.03;2.90;;;11.90;99.90;;;11.09;100.00;101766.50;4188831;28;20025;-75
2023/09/24 00:14:23;;;;;;;8.52;3.35;;;11.80;99.90;;;11.07;100.00;101760.53;4188045;28;20035;-75
2023/09/24 00:16:24;;;;;;;6.32;3.22;;;11.80;99.90;;;11.06;100.00;101772.03;4189513;28;20107;-75
2023/09/24 00:18:24;;;;;;;9.35;3.08;;;11.80;99.90;;;11.03;100.00;101764.41;4185975;28;20025;-75
2023/09/24 00:20:26;;;;;;;6.78;2.90;;;11.70;99.90;;;11.01;100.00;101768.16;4185937;28;20025;-75
2023/09/24 00:22:26;;;;;;;8.48;3.00;;;11.70;99.90;;;10.99;100.00;101765.63;4185915;28;20029;-75
2023/09/24 00:24:27;;;;;;;6.78;3.30;;;11.70;99.90;;;10.96;100.00;101765.88;4185800;28;20048;-75
2023/09/24 00:26:28;;;;;;;7.00;2.63;;;11.70;99.90;;;10.95;100.00;101758.97;4192975;28;20111;-75
2023/09/24 00:28:29;;;;;;;6.72;2.70;;;11.60;99.90;;;10.91;100.00;101761.97;4185486;28;20060;-75
2023/09/24 00:30:33;;;;;;;7.22;3.38;;;11.60;99.90;;;10.90;100.00;101757.69;4199451;28;20017;-75
2023/09/24 00:32:35;;;;;;;10.55;3.70;;;11.60;99.90;;;10.89;100.00;101748.94;4185347;28;20024;-75
2023/09/24 00:34:36;;;;;;;8.63;3.58;;;11.60;99.90;;;10.88;100.00;101752.53;4169887;28;20032;-75
2023/09/24 00:36:37;;;;;;;7.10;3.03;;;11.60;99.90;;;10.88;100.00;101757.81;4191286;28;20024;-75
2023/09/24 00:38:38;;;;;;;9.75;3.53;;;11.60;99.90;;;10.86;100.00;101761.56;4186703;28;20041;-75
2023/09/24 00:40:39;;;;;;;5.22;3.05;;;11.60;99.90;;;10.83;100.00;101762.66;4185647;28;20021;-75
2023/09/24 00:42:40;;;;;;;6.05;2.80;;;11.60;99.90;;;10.82;100.00;101755.69;4194705;28;20507;-75
2023/09/24 00:44:41;;;;;;;6.80;3.00;;;11.50;99.90;;;10.81;100.00;101761.13;4200788;28;20036;-75
2023/09/24 00:46:46;;;;;;;6.13;2.85;;;11.50;99.90;;;10.81;100.00;101754.03;4185155;28;20048;-75
2023/09/24 00:48:48;;;;;;;10.10;2.30;;;11.50;99.90;;;10.81;100.00;101751.38;4184424;28;20092;-75
2023/09/24 00:50:49;;;;;;;12.20;3.10;;;11.50;99.90;;;10.81;100.00;101753.22;4194671;28;20037;-75
2023/09/24 00:52:51;;;;;;;5.75;2.80;;;11.50;99.90;;;10.82;100.00;101766.25;4200121;28;20026;-75
2023/09/24 00:54:53;;;;;;;6.80;3.38;;;11.50;99.90;;;10.81;100.00;101766.41;4193637;28;20605;-75
2023/09/24 00:56:58;;;;;;;9.48;2.95;;;11.50;99.90;;;10.78;100.00;101758.75;4190439;28;20032;-75
2023/09/24 00:58:59;;;;;;;5.63;2.30;;;11.50;99.90;;;10.77;100.00;101765.81;4193986;28;20032;-75
2023/09/24 01:01:00;;;;;;;7.88;2.85;;;11.50;99.90;;;10.76;100.00;101758.88;4183866;28;20474;-75
2023/09/24 01:03:01;;;;;;;7.63;2.60;;;11.50;99.90;;;10.77;100.00;101749.16;4196586;28;20025;-75
2023/09/24 01:05:03;;;;;;;5.70;2.50;;;11.50;99.90;;;10.78;100.00;101750.84;4186655;28;20516;-75
2023/09/24 01:07:04;;;;;;;5.53;2.17;;;11.50;99.90;;;10.78;100.00;101756.13;4187631;28;20031;-75
2023/09/24 01:09:08;;;;;;;5.00;2.08;;;11.50;99.90;;;10.77;100.00;101757.91;4185208;28;20029;-75
2023/09/24 01:11:09;;;;;;;5.20;2.60;;;11.50;99.90;;;10.76;100.00;101753.59;4184233;28;20025;-75
2023/09/24 01:13:10;;;;;;;7.88;2.80;;;11.50;99.90;;;10.79;100.00;101755.13;4193653;28;20032;-75
2023/09/24 01:15:13;;;;;;;6.80;2.90;;;11.50;99.90;;;10.83;100.00;101756.53;4194481;28;20032;-75
2023/09/24 01:17:15;;;;;;;6.43;2.60;;;11.50;99.90;;;10.89;100.00;101753.38;4191358;28;20077;-75
2023/09/24 01:19:16;;;;;;;4.05;1.85;;;11.60;99.90;;;10.92;100.00;101748.66;4185207;28;20041;-75
2023/09/24 01:21:17;;;;;;;5.70;2.28;;;11.60;99.90;;;10.98;100.00;101747.28;4190694;28;20080;-75
2023/09/24 01:23:18;;;;;;;4.57;2.78;;;11.70;99.90;;;11.00;100.00;101750.63;4183987;28;20043;-75
2023/09/24 01:25:19;;;;;;;4.22;2.17;;;11.70;99.90;;;11.05;100.00;101749.25;4197717;28;20025;-75
2023/09/24 01:27:21;;;;;;;9.38;2.30;;;11.70;99.90;;;11.03;100.00;101745.91;4186119;28;20071;-75
2023/09/24 01:29:23;;;;;;;3.97;2.30;;;11.70;99.90;;;10.99;100.00;101744.50;4185156;28;20440;-75
2023/09/24 01:31:26;;;;;;;4.28;2.05;;;11.70;99.90;;;10.98;100.00;101737.56;4186059;28;20027;-75
2023/09/24 01:33:27;;;;;;;4.90;2.10;;;11.70;99.90;;;10.94;100.00;101722.97;4187748;28;20021;-75
2023/09/24 01:35:29;;;;;;;5.05;2.30;;;11.60;99.90;;;10.91;100.00;101719.75;4190165;28;20044;-75
2023/09/24 01:37:33;;;;;;;6.35;2.35;;;11.60;99.90;;;10.88;100.00;101720.00;4191812;28;20104;-75
2023/09/24 01:39:36;;;;;;;4.68;2.33;;;11.60;99.90;;;10.80;100.00;101720.69;4184771;28;20041;-75
2023/09/24 01:41:37;;;;;;;8.82;3.05;;;11.60;99.90;;;10.81;100.00;101718.91;4200285;28;20111;-75
2023/09/24 01:43:42;;;;;;;5.00;1.95;;;11.50;99.90;;;10.78;100.00;101719.16;4210773;28;20043;-75
2023/09/24 01:45:43;;;;;;;6.13;2.25;;;11.50;99.90;;;10.74;100.00;101712.47;4188514;28;20063;-75
2023/09/24 01:47:49;;;;;;;5.70;2.20;;;11.50;99.90;;;10.72;100.00;101712.59;4187892;28;20041;-75
2023/09/24 01:49:50;;;;;;;6.40;2.28;;;11.40;99.90;;;10.66;100.00;101704.41;4188110;28;20021;-74
2023/09/24 01:51:51;;;;;;;10.43;3.40;;;11.40;99.90;;;10.67;100.00;101712.16;4188621;28;20021;-75
2023/09/24 01:53:52;;;;;;;5.28;2.30;;;11.40;99.90;;;10.66;100.00;101717.59;4188242;28;20071;-75
2023/09/24 01:55:53;;;;;;;7.85;2.20;;;11.40;99.90;;;10.65;100.00;101714.09;4188228;28;20040;-75
2023/09/24 01:57:56;;;;;;;5.75;2.67;;;11.40;99.90;;;10.63;100.00;101709.94;4200130;28;20396;-75
2023/09/24 01:59:58;;;;;;;5.13;1.90;;;11.40;99.90;;;10.62;100.00;101714.38;4199384;28;20029;-75
2023/09/24 02:01:59;;;;;;;5.68;1.98;;;11.30;99.90;;;10.62;100.00;101710.91;4187759;28;20500;-75
2023/09/24 02:04:01;;;;;;;6.25;2.35;;;11.30;99.90;;;10.57;100.00;101700.75;4187989;28;20029;-75
2023/09/24 02:06:03;;;;;;;3.53;1.77;;;11.30;99.90;;;10.59;100.00;101709.38;4187854;28;20044;-75
2023/09/24 02:08:06;;;;;;;6.63;2.40;;;11.30;99.90;;;10.57;100.00;101704.19;4201508;28;20101;-75
2023/09/24 02:10:08;;;;;;;7.13;2.42;;;11.30;99.90;;;10.57;100.00;101700.75;4175928;28;20028;-75
2023/09/24 02:12:10;;;;;;;6.93;2.42;;;11.30;99.90;;;10.55;100.00;101697.38;4192433;28;20029;-75
2023/09/24 02:14:12;;;;;;;4.30;2.25;;;11.30;99.90;;;10.57;100.00;101705.19;4189067;28;20032;-75
2023/09/24 02:16:13;;;;;;;6.15;2.47;;;11.30;99.90;;;10.57;100.00;101699.91;4187700;28;20055;-75
2023/09/24 02:18:13;;;;;;;4.72;2.10;;;11.30;99.90;;;10.55;100.00;101700.03;4187840;28;20100;-75
2023/09/24 02:20:24;;;;;;;6.25;2.63;;;11.30;99.90;;;10.57;100.00;101701.56;4196906;28;20036;-75
2023/09/24 02:22:25;;;;;;;5.07;2.00;;;11.30;99.90;;;10.57;100.00;101692.84;4189283;28;20028;-75
2023/09/24 02:24:26;;;;;;;6.38;2.00;;;11.30;99.90;;;10.57;100.00;101696.28;4190774;28;20029;-75
2023/09/24 02:26:27;;;;;;;4.10;2.40;;;11.30;99.90;;;10.58;100.00;101697.13;4187582;28;20029;-75
2023/09/24 02:28:28;;;;;;;5.53;2.10;;;11.30;99.90;;;10.59;100.00;101703.25;4187654;28;20396;-75
2023/09/24 02:30:31;;;;;;;5.28;2.40;;;11.30;99.90;;;10.59;100.00;101704.09;4187674;28;20053;-75
2023/09/24 02:32:32;;;;;;;6.72;2.30;;;11.30;99.90;;;10.55;100.00;101698.22;4187423;28;20025;-75
2023/09/24 02:34:33;;;;;;;7.30;2.60;;;11.30;99.90;;;10.60;100.00;101708.41;4194440;28;20401;-75
2023/09/24 02:36:34;;;;;;;5.90;2.10;;;11.30;99.90;;;10.60;100.00;101710.19;4191770;28;20365;-75
2023/09/24 02:38:35;;;;;;;5.85;2.38;;;11.30;99.90;;;10.61;100.00;101707.41;4185948;28;20111;-75
2023/09/24 02:40:36;;;;;;;8.82;2.30;;;11.30;99.90;;;10.62;100.00;101711.72;4192456;28;20443;-75
2023/09/24 02:42:38;;;;;;;7.25;1.90;;;11.40;99.90;;;10.63;100.00;101708.13;4188507;28;20031;-75
2023/09/24 02:44:39;;;;;;;6.63;2.15;;;11.40;99.90;;;10.63;100.00;101710.78;4214505;28;20032;-75
2023/09/24 02:46:41;;;;;;;8.05;2.53;;;11.40;99.90;;;10.65;100.00;101706.19;4201858;28;20025;-75
2023/09/24 02:48:44;;;;;;;6.72;2.45;;;11.40;99.90;;;10.66;100.00;101694.69;4188377;28;20036;-75
2023/09/24 02:50:45;;;;;;;6.18;2.30;;;11.40;99.90;;;10.68;100.00;101700.66;4187274;28;20100;-75
2023/09/24 02:52:46;;;;;;;4.47;1.95;;;11.40;99.90;;;10.71;100.00;101708.31;4187016;28;20025;-75
2023/09/24 02:54:48;;;;;;;6.63;2.05;;;11.40;99.90;;;10.71;100.00;101708.31;4200786;28;20149;-75
2023/09/24 02:56:50;;;;;;;5.15;2.08;;;11.40;99.90;;;10.74;100.00;101715.09;4197660;28;20032;-75
2023/09/24 02:58:50;;;;;;;6.63;1.95;;;11.50;99.90;;;10.70;100.00;101711.91;4195792;28;20082;-75
2023/09/24 03:00:51;;;;;;;6.50;2.53;;;11.50;99.90;;;10.72;100.00;101704.66;4194828;28;20028;-75
2023/09/24 03:02:55;;;;;;;6.28;1.85;;;11.40;99.90;;;10.70;100.00;101698.69;4202150;28;20484;-75
2023/09/24 03:04:56;;;;;;;;;;;11.40;99.90;;;10.70;100.00;101705.78;4199515;28;20032;-75
2023/09/24 03:06:57;;;;;;;6.00;1.95;;;11.40;99.90;;;10.68;100.00;101697.16;4195954;28;19931;-75
2023/09/24 03:08:58;;;;;;;7.25;2.22;;;11.40;99.90;;;10.67;100.00;101698.97;4203570;28;20024;-75
2023/09/24 03:10:59;;;;;;;7.75;2.17;;;11.40;99.90;;;10.67;100.00;101701.59;4199696;28;20033;-75
2023/09/24 03:13:00;;;;;;;5.63;2.00;;;11.40;99.90;;;10.64;100.00;101693.13;4185707;28;20032;-75
2023/09/24 03:15:02;;;;;;;4.72;2.15;;;11.40;99.90;;;10.64;100.00;101693.13;4194097;28;20035;-75
2023/09/24 03:17:03;;;;;;;3.42;1.98;;;11.40;99.90;;;10.63;100.00;101692.31;4197389;28;20063;-75
2023/09/24 03:19:03;;;;;;;3.85;1.90;;;11.40;99.90;;;10.64;100.00;101695.75;4202107;28;20028;-75
2023/09/24 03:21:04;;;;;;;4.35;2.03;;;11.40;99.90;;;10.60;100.00;101700.50;4202344;28;20021;-75
2023/09/24 03:23:09;;;;;;;4.35;2.10;;;11.40;99.90;;;10.58;100.00;101691.84;4203438;28;20039;-75
2023/09/24 03:25:11;;;;;;;6.00;2.60;;;11.30;99.90;;;10.59;100.00;101698.81;4192368;28;20025;-75
2023/09/24 03:27:13;;;;;;;5.18;1.98;;;11.30;99.90;;;10.60;100.00;101697.84;4201743;28;20426;-75
2023/09/24 03:29:15;;;;;;;7.07;2.10;;;11.40;99.90;;;10.60;100.00;101695.22;4203384;28;20430;-75
2023/09/24 03:31:16;;;;;;;4.95;1.98;;;11.30;99.90;;;10.59;100.00;101698.81;4199874;28;20584;-75
2023/09/24 03:33:18;;;;;;;4.72;1.90;;;11.30;99.90;;;10.58;100.00;101697.13;4198291;28;20427;-75
2023/09/24 03:35:25;;;;;;;4.75;1.75;;;11.30;99.90;;;10.59;100.00;101696.16;4201147;28;20545;-75
2023/09/24 03:37:25;;;;;;;6.57;1.80;;;11.30;99.90;;;10.59;100.00;101701.44;4185288;28;20612;-75
2023/09/24 03:39:26;;;;;;;4.85;1.88;;;11.30;99.90;;;10.56;100.00;101696.44;4185270;28;20048;-75
2023/09/24 03:41:28;;;;;;;4.43;2.17;;;11.30;99.90;;;10.57;100.00;101695.47;4190382;28;20020;-75
2023/09/24 03:43:29;;;;;;;6.95;2.40;;;11.30;99.90;;;10.60;100.00;101697.00;4199689;28;20039;-75
2023/09/24 03:45:30;;;;;;;5.28;1.90;;;11.30;99.90;;;10.58;100.00;101694.47;4185405;28;20064;-75
2023/09/24 03:47:31;;;;;;;7.28;2.03;;;11.30;99.90;;;10.62;100.00;101697.69;4193203;28;20380;-75
2023/09/24 03:49:32;;;;;;;8.07;2.42;;;11.30;99.90;;;10.61;100.00;101701.28;4198034;28;20023;-75
2023/09/24 03:51:33;;;;;;;5.60;1.70;;;11.40;99.90;;;10.65;100.00;101702.72;4186612;28;20032;-75
2023/09/24 03:53:34;;;;;;;4.40;1.80;;;11.40;99.90;;;10.64;100.00;101707.16;4186378;28;20036;-75
2023/09/24 03:55:35;;;;;;;5.82;1.73;;;11.40;99.90;;;10.63;100.00;101702.88;4192105;28;20029;-75
2023/09/24 03:57:39;;;;;;;5.15;1.85;;;11.30;99.90;;;10.62;100.00;101698.53;4186215;28;20099;-75
2023/09/24 03:59:40;;;;;;;5.05;1.88;;;11.40;99.90;;;10.63;100.00;101697.59;4199608;28;20033;-75
2023/09/24 04:01:40;;;;;;;6.72;2.60;;;11.40;99.90;;;10.65;100.00;101708.84;4202158;28;20078;-75
2023/09/24 04:03:41;;;;;;;5.47;1.98;;;11.40;99.90;;;10.63;100.00;101696.75;4202034;28;20051;-75
2023/09/24 04:05:42;;;;;;;8.52;1.98;;;11.40;99.90;;;10.67;100.00;101698.13;4200708;28;20037;-75
2023/09/24 04:07:46;;;;;;;5.85;2.42;;;11.40;99.90;;;10.66;100.00;101694.69;4202459;28;20031;-75
2023/09/24 04:09:47;;;;;;;6.90;2.20;;;11.40;99.90;;;10.67;100.00;101700.75;4196169;28;20025;-75
2023/09/24 04:11:48;;;;;;;4.95;1.67;;;11.30;99.90;;;10.66;100.00;101694.69;4184909;28;20056;-75
2023/09/24 04:13:49;;;;;;;4.70;2.05;;;11.40;99.90;;;10.68;100.00;101697.16;4197979;28;20515;-75
2023/09/24 04:15:52;;;;;;;4.32;1.92;;;11.40;99.90;;;10.67;100.00;101696.31;4200582;28;20469;-75
2023/09/24 04:17:56;;;;;;;4.82;1.77;;;11.40;99.90;;;10.69;100.00;101693.56;4201339;28;20111;-75
2023/09/24 04:19:57;;;;;;;5.45;2.22;;;11.40;99.90;;;10.67;100.00;101690.22;4201400;28;20044;-75
2023/09/24 04:21:58;;;;;;;3.85;1.58;;;11.40;99.90;;;10.67;100.00;101688.41;4201284;28;20096;-75
2023/09/24 04:23:59;;;;;;;4.90;1.73;;;11.40;99.90;;;10.71;100.00;101689.81;4198977;28;20124;-75
2023/09/24 04:26:01;;;;;;;3.60;1.80;;;11.40;99.90;;;10.72;100.00;101688.03;4200355;28;20025;-75
2023/09/24 04:28:03;;;;;;;5.13;1.60;;;11.40;99.90;;;10.69;100.00;101683.84;4192568;28;20056;-75
2023/09/24 04:30:10;;;;;;;4.20;2.00;;;11.40;99.90;;;10.70;100.00;101672.31;4184417;28;20160;-75
2023/09/24 04:32:11;;;;;;;4.07;1.73;;;11.40;99.90;;;10.72;100.00;101680.13;4184870;28;20029;-75
2023/09/24 04:34:13;;;;;;;5.07;1.70;;;11.50;99.90;;;10.69;100.00;101673.31;4190006;28;20067;-75
2023/09/24 04:36:14;;;;;;;5.70;1.90;;;11.40;99.90;;;10.70;100.00;101674.94;4188482;28;20116;-75
2023/09/24 04:38:16;;;;;;;4.35;1.83;;;11.40;99.90;;;10.68;100.00;101666.34;4196630;28;20037;-75
2023/09/24 04:40:18;;;;;;;4.80;2.08;;;11.40;99.90;;;10.68;100.00;101674.25;4185522;28;20024;-75
2023/09/24 04:42:19;;;;;;;5.30;1.90;;;11.40;99.90;;;10.67;100.00;101671.75;4185601;28;20060;-75
2023/09/24 04:44:20;;;;;;;3.63;2.20;;;11.40;99.90;;;10.68;100.00;101674.25;4184851;28;20040;-75
2023/09/24 04:46:20;;;;;;;5.40;1.95;;;11.40;99.90;;;10.66;100.00;101676.22;4204419;28;20028;-75
2023/09/24 04:48:21;;;;;;;7.65;2.45;;;11.40;99.90;;;10.63;100.00;101678.28;4200117;28;20400;-75
2023/09/24 04:50:23;;;;;;;9.32;2.10;;;11.40;99.90;;;10.62;100.00;101677.44;4189687;28;20029;-75
2023/09/24 04:52:24;;;;;;;4.72;1.92;;;11.40;99.90;;;10.61;100.00;101674.91;4193181;28;20420;-75
2023/09/24 04:54:25;;;;;;;5.28;2.03;;;11.30;99.90;;;10.59;100.00;101674.22;4186787;28;20032;-75
2023/09/24 04:56:28;;;;;;;4.13;2.30;;;11.30;99.90;;;10.59;100.00;101674.22;4186399;28;20024;-75
2023/09/24 04:58:29;;;;;;;6.03;2.13;;;11.30;99.90;;;10.57;100.00;101677.81;4189658;28;20766;-75
2023/09/24 05:00:30;;;;;;;4.50;1.98;;;11.30;99.90;;;10.54;100.00;101675.44;4185343;28;20111;-75
2023/09/24 05:02:31;;;;;;;6.28;2.33;;;11.30;99.90;;;10.51;100.00;101670.44;4194608;28;20462;-75
2023/09/24 05:04:32;;;;;;;4.47;1.90;;;11.30;99.90;;;10.51;100.00;101678.34;4184240;28;20156;-75
2023/09/24 05:06:33;;;;;;;6.10;2.60;;;11.20;99.90;;;10.48;100.00;101672.53;4189095;28;20024;-75
2023/09/24 05:08:34;;;;;;;5.78;2.38;;;11.20;99.90;;;10.49;100.00;101668.91;4192288;28;20048;-75
2023/09/24 05:10:38;;;;;;;3.00;1.42;;;11.30;99.90;;;10.48;100.00;101673.34;4184135;28;20021;-75
2023/09/24 05:12:40;;;;;;;;;;;11.20;99.90;;;10.42;100.00;101681.78;4200763;28;20094;-75
2023/09/24 05:14:41;;;;;;;6.05;1.85;;;11.20;99.90;;;10.44;100.00;101676.38;4195743;28;19913;-75
2023/09/24 05:16:41;;;;;;;7.47;2.30;;;11.20;99.90;;;10.48;100.00;101675.16;4184943;28;20389;-75
2023/09/24 05:18:42;;;;;;;3.70;1.90;;;11.20;99.90;;;10.53;100.00;101671.16;4185173;28;20029;-75
2023/09/24 05:20:43;;;;;;;10.82;2.22;;;11.20;99.90;;;10.60;100.00;101665.34;4198832;28;20021;-75
2023/09/24 05:22:44;;;;;;;3.72;1.75;;;11.30;99.90;;;10.66;100.00;101668.28;4185206;28;20500;-75
2023/09/24 05:24:45;;;;;;;4.45;1.90;;;11.40;99.90;;;10.73;100.00;101669.41;4189330;28;20028;-75
2023/09/24 05:26:46;;;;;;;4.20;1.90;;;11.40;99.90;;;10.74;100.00;101668.44;4189289;28;20032;-75
2023/09/24 05:28:48;;;;;;;9.52;2.10;;;11.40;99.90;;;10.75;100.00;101667.47;4184004;28;20415;-75
2023/09/24 05:30:53;;;;;;;6.20;2.50;;;11.40;99.90;;;10.76;100.00;101674.41;4189315;28;20032;-75
2023/09/24 05:32:54;;;;;;;5.65;2.10;;;11.50;99.90;;;10.74;100.00;101671.09;4185106;28;20088;-75
2023/09/24 05:34:55;;;;;;;5.53;2.28;;;11.50;99.90;;;10.76;100.00;101665.66;4189104;28;20021;-75
2023/09/24 05:36:56;;;;;;;7.28;1.85;;;11.50;99.90;;;10.73;100.00;101674.69;4186537;28;20025;-75
2023/09/24 05:38:58;;;;;;;8.05;1.80;;;11.50;99.90;;;10.71;100.00;101676.63;4193087;28;20071;-75
2023/09/24 05:40:59;;;;;;;9.05;2.78;;;11.40;99.90;;;10.69;100.00;101673.31;4192294;28;20021;-75
2023/09/24 05:43:00;;;;;;;5.45;1.95;;;11.40;99.90;;;10.70;100.00;101668.84;4196620;28;20487;-75
2023/09/24 05:45:01;;;;;;;4.05;1.88;;;11.40;99.90;;;10.69;100.00;101677.75;4199053;28;20025;-75
2023/09/24 05:47:06;;;;;;;7.13;2.38;;;11.40;99.90;;;10.70;100.00;101680.22;4184881;28;20029;-75
2023/09/24 05:49:08;;;;;;;7.22;2.60;;;11.40;99.90;;;10.65;100.00;101685.09;4186754;28;20079;-75
2023/09/24 05:51:09;;;;;;;4.00;2.08;;;11.40;99.90;;;10.63;100.00;101683.56;4167140;28;20061;-75
2023/09/24 05:53:14;;;;;;;5.63;1.92;;;11.30;99.90;;;10.60;100.00;101687.28;4186466;28;20063;-75
2023/09/24 05:55:15;;;;;;;5.20;1.45;;;11.40;99.90;;;10.57;100.00;101691.00;4184949;28;20059;-75
2023/09/24 05:57:16;;;;;;;4.07;1.85;;;11.30;99.90;;;10.57;100.00;101690.19;4184924;28;20083;-75
2023/09/24 05:59:19;;;;;;;5.78;1.70;;;11.30;99.90;;;10.57;100.00;101698.13;4196374;28;20062;-75
2023/09/24 06:01:20;;;;;;;4.47;1.80;;;11.30;99.90;;;10.59;100.00;101693.53;4185368;28;20063;-74
2023/09/24 06:03:20;;;;;;;4.32;1.80;;;11.30;99.90;;;10.61;100.00;101702.13;4188868;28;20032;-75
2023/09/24 06:05:21;;;;;;;4.28;1.70;;;11.30;99.90;;;10.62;100.00;101698.53;4183709;28;20087;-75
2023/09/24 06:07:24;;;;;;;4.85;1.80;;;11.30;99.90;;;10.65;100.00;101698.28;4196689;28;20024;-75
2023/09/24 06:09:28;;;;;;;5.93;2.25;;;11.30;99.90;;;10.70;100.00;101711.06;4195235;28;20025;-75
2023/09/24 06:11:29;;;;;;;4.75;2.17;;;11.40;99.90;;;10.67;100.00;101698.13;4188767;28;20508;-75
2023/09/24 06:13:30;;;;;;;6.18;1.67;;;11.40;99.90;;;10.68;100.00;101703.28;4196661;28;20024;-75
2023/09/24 06:15:31;;;;;;;4.55;2.00;;;11.40;99.90;;;10.73;100.00;101710.78;4197945;28;20028;-75
2023/09/24 06:17:33;;;;;;;6.07;2.50;;;11.40;99.90;;;10.74;100.00;101710.66;4200908;28;20029;-75
2023/09/24 06:19:34;;;;;;;5.30;2.05;;;11.40;99.90;;;10.73;100.00;101709.00;4200486;28;20028;-75
2023/09/24 06:21:35;;;;;;;4.90;1.98;;;11.40;99.90;;;10.74;100.00;101705.41;4197408;28;20495;-75
2023/09/24 06:23:37;;;;;;;4.55;1.75;;;11.40;99.90;;;10.76;100.00;101711.38;4186971;28;20039;-75
2023/09/24 06:25:37;;;;;;;4.97;2.08;;;11.40;99.90;;;10.76;100.00;101706.09;4183118;28;20021;-75
2023/09/24 06:27:42;;;;;;;4.25;1.80;;;11.50;99.90;;;10.76;100.00;101703.44;4187411;28;20036;-75
2023/09/24 06:29:43;;;;;;;3.28;1.73;;;11.50;99.90;;;10.79;100.00;101707.63;4187961;28;20036;-75
2023/09/24 06:31:46;;;;;;;7.05;2.33;;;11.50;99.90;;;10.78;100.00;101713.88;4198656;28;20082;-75
2023/09/24 06:33:47;;;;;;;6.57;1.90;;;11.50;99.90;;;10.78;100.00;101704.13;4199122;28;20526;-74
2023/09/24 06:35:48;;;;;;;3.15;1.55;;;11.50;99.90;;;10.80;100.00;101702.22;4193241;28;20044;-74
2023/09/24 06:37:48;;;;;;;3.25;1.58;;;11.50;99.90;;;10.81;100.00;101701.22;4192550;28;20033;-75
2023/09/24 06:39:49;;;;;;;4.32;1.80;;;11.50;99.90;;;10.84;100.00;101700.97;4187408;28;20083;-75
2023/09/24 06:41:50;;;;;;;4.50;2.05;;;11.60;99.90;;;10.85;100.00;101697.38;4201450;28;20029;-75
2023/09/24 06:43:52;;;;;;;3.05;1.75;;;11.60;99.90;;;10.89;100.00;101705.84;4197898;28;20047;-75
2023/09/24 06:45:55;;;;;;;4.43;1.80;;;11.60;99.90;;;10.93;100.00;101700.16;4194187;28;20045;-76
2023/09/24 06:47:56;;;;;;;5.05;2.35;;;11.60;99.90;;;11.00;100.00;101693.38;4201672;28;20028;-75
2023/09/24 06:49:57;;;;;;;4.38;1.70;;;11.70;99.90;;;11.07;100.00;101705.09;4186042;28;20029;-75
2023/09/24 06:51:58;;;;;;;10.20;2.92;;;11.80;99.90;;;11.12;100.00;101696.72;4194089;28;20025;-75
2023/09/24 06:53:59;;;;;;;3.95;2.15;;;11.90;99.90;;;11.18;100.00;101698.00;4187428;28;20048;-75
2023/09/24 06:56:04;;;;;;;7.43;1.83;;;11.90;99.90;;;11.27;100.00;101700.66;4188339;28;20029;-75
2023/09/24 06:58:05;;;;;;;4.97;1.88;;;12.00;99.90;;;11.40;100.00;101708.31;4201843;28;20021;-75
2023/09/24 07:00:10;;;;;;;6.15;2.00;;;12.10;99.90;;;11.50;100.00;101696.78;4187194;28;20090;-75
2023/09/24 07:02:11;;;;;;;6.60;2.10;;;12.20;99.90;;;11.61;100.00;101704.59;4190768;28;20539;-75
2023/09/24 07:04:11;;;;;;;8.15;2.28;;;12.30;99.90;;;11.67;100.00;101703.19;4187296;28;20033;-75
2023/09/24 07:06:15;;;;;;;6.32;1.90;;;12.40;99.90;;;11.71;100.00;101698.50;4201454;28;20033;-75
2023/09/24 07:08:16;;;;;;;8.80;2.17;;;12.40;99.90;;;11.71;100.00;101704.59;4203785;28;20399;-75
2023/09/24 07:10:18;;;;;;;7.72;2.50;;;12.40;99.90;;;11.74;100.00;101708.78;4202347;28;20090;-75
2023/09/24 07:12:19;;;;;;;7.03;2.20;;;12.50;99.90;;;11.71;100.00;101701.94;4180190;28;20512;-75
2023/09/24 07:14:19;;;;;;;6.75;2.00;;;12.50;99.90;;;11.77;100.00;101706.69;4200975;28;20028;-75
2023/09/24 07:16:25;;;;;;;6.18;1.85;;;12.50;99.90;;;11.81;100.00;101704.59;4187293;28;20037;-75
2023/09/24 07:18:27;;;;;;;6.38;2.03;;;12.60;99.90;;;11.86;100.00;101705.84;4191668;28;20036;-75
2023/09/24 07:20:29;;;;;;;7.28;1.88;;;12.60;99.90;;;11.91;100.00;101700.13;4187162;28;20059;-75
2023/09/24 07:22:30;;;;;;;4.22;1.80;;;12.70;99.90;;;11.96;100.00;101704.03;4189966;28;20084;-75
2023/09/24 07:24:31;;;;;;;6.63;2.40;;;12.70;99.90;;;12.03;100.00;101712.22;4196364;28;20504;-75
2023/09/24 07:26:32;;;;;;;6.30;1.77;;;12.80;99.90;;;12.10;100.00;101700.94;4193382;28;20032;-75
2023/09/24 07:28:35;;;;;;;5.18;2.05;;;12.80;99.90;;;12.20;100.00;101703.56;4195695;28;20495;-75
2023/09/24 07:30:35;;;;;;;6.30;2.58;;;13.00;99.90;;;12.27;100.00;101707.31;4195246;28;20083;-75
2023/09/24 07:32:37;;;;;;;8.27;3.13;;;13.00;99.90;;;12.34;100.00;101707.53;4195707;28;20021;-75
2023/09/24 07:34:38;;;;;;;5.72;2.53;;;13.10;99.90;;;12.40;100.00;101706.97;4186204;28;20112;-75
2023/09/24 07:36:39;;;;;;;10.40;3.28;;;13.20;99.90;;;12.44;100.00;101711.00;4189572;28;20033;-75
2023/09/24 07:38:41;;;;;;;6.78;2.20;;;13.20;99.90;;;12.50;100.00;101719.22;4185267;28;20052;-75
2023/09/24 07:40:43;;;;;;;6.88;1.90;;;13.30;99.90;;;12.59;100.00;101709.56;4191826;28;20138;-75
2023/09/24 07:42:46;;;;;;;6.65;1.90;;;13.30;99.90;;;12.68;100.00;101711.34;4193351;28;20029;-75
2023/09/24 07:44:47;;;;;;;4.88;2.20;;;13.40;99.90;;;12.81;100.00;101706.56;4197143;28;20017;-75
2023/09/24 07:46:48;;;;;;;9.68;2.50;;;13.50;99.90;;;13.03;100.00;101705.28;4197743;28;20115;-75
2023/09/24 07:48:49;;;;;;;7.10;2.67;;;13.70;99.90;;;13.42;100.00;101705.91;4199094;28;20028;-76
2023/09/24 07:50:55;;;;;;;9.05;2.53;;;14.00;99.90;;;13.82;100.00;101706.28;4194058;28;20024;-76
2023/09/24 07:52:57;;;;;;;4.70;2.22;;;14.40;99.90;;;14.21;100.00;101710.22;4188806;28;20036;-76
2023/09/24 07:54:58;;;;;;;7.35;2.20;;;14.70;99.90;;;14.57;100.00;101710.13;4201473;28;20024;-76
2023/09/24 07:56:59;;;;;;;6.47;2.30;;;15.10;99.90;;;14.81;100.00;101718.22;4202945;28;20502;-76
2023/09/24 07:59:02;;;;;;;6.18;2.25;;;15.40;99.90;;;15.01;100.00;101722.28;4200910;28;20033;-76
2023/09/24 08:01:08;;;;;;;7.18;2.08;;;15.50;99.90;;;15.16;100.00;101717.16;4192648;28;20021;-76
2023/09/24 08:03:09;;;;;;;4.95;2.55;;;15.70;99.90;;;15.25;100.00;101717.03;4196969;28;20028;-76
2023/09/24 08:05:09;;;;;;;5.82;1.73;;;15.80;99.90;;;15.33;100.00;101717.03;4197880;28;20096;-77
2023/09/24 08:07:10;;;;;;;3.63;2.30;;;15.90;99.90;;;15.43;100.00;101719.56;4187786;28;20025;-76
2023/09/24 08:09:11;;;;;;;6.88;2.47;;;16.00;99.90;;;15.43;100.00;101719.56;4182116;28;20029;-76
2023/09/24 08:11:12;;;;;;;5.72;1.73;;;16.10;99.90;;;15.38;100.00;101721.88;4189325;28;20016;-76
2023/09/24 08:13:13;;;;;;;5.45;2.03;;;16.10;99.90;;;15.26;100.00;101725.84;4188358;28;20040;-76
2023/09/24 08:15:14;;;;;;;6.18;2.22;;;16.00;99.90;;;15.08;100.00;101720.66;4184673;28;20060;-76
2023/09/24 08:17:15;;;;;;;5.45;1.42;;;15.90;99.90;;;15.02;100.00;101721.28;4196948;28;20024;-76
2023/09/24 08:19:16;;;;;;;4.70;2.35;;;15.80;99.90;;;14.95;100.00;101725.56;4197380;28;20033;-76